createdAt,value
2019-05-12T00:00:51.609Z,3.80
2019-05-12T00:03:21.298Z,3.90
2019-05-12T00:05:51.144Z,3.70
2019-05-12T00:08:20.967Z,3.97
2019-05-12T00:10:50.833Z,4.40
2019-05-12T00:13:20.592Z,3.83
2019-05-12T00:15:50.628Z,4.13
2019-05-12T00:18:20.387Z,4.17
2019-05-12T00:20:50.106Z,3.73
2019-05-12T00:23:26.908Z,4.30
2019-05-12T00:25:51.809Z,4.40
2019-05-12T00:28:21.643Z,3.80
2019-05-12T00:30:52.140Z,4.27
2019-05-12T00:33:22.087Z,3.90
2019-05-12T00:35:51.856Z,4.23
2019-05-12T00:38:21.688Z,4.03
2019-05-12T00:40:51.636Z,4.10
2019-05-12T00:43:21.330Z,3.93
2019-05-12T00:45:51.198Z,4.43
2019-05-12T00:48:21.036Z,5.03
2019-05-12T00:50:50.744Z,4.70
2019-05-12T00:53:20.511Z,6.00
2019-05-12T00:55:50.342Z,4.97
2019-05-12T00:58:20.138Z,4.93
2019-05-12T01:00:49.910Z,4.47
2019-05-12T01:03:19.714Z,5.50
2019-05-12T01:05:49.596Z,4.10
2019-05-12T01:08:19.519Z,5.07
2019-05-12T01:10:49.253Z,5.63
2019-05-12T01:13:19.017Z,4.50
2019-05-12T01:15:48.864Z,4.93
2019-05-12T01:18:18.686Z,4.77
2019-05-12T01:20:48.529Z,4.87
2019-05-12T01:23:19.316Z,5.03
2019-05-12T01:25:50.867Z,5.20
2019-05-12T01:28:20.928Z,5.37
2019-05-12T01:30:50.738Z,6.13
2019-05-12T01:33:20.463Z,4.70
2019-05-12T01:35:50.380Z,5.13
2019-05-12T01:38:20.147Z,5.60
2019-05-12T01:40:49.901Z,6.23
2019-05-12T01:43:21.265Z,5.30
2019-05-12T01:45:51.415Z,5.70
2019-05-12T01:48:21.188Z,6.07
2019-05-12T01:50:50.899Z,5.37
2019-05-12T01:53:20.645Z,5.20
2019-05-12T01:56:02.929Z,5.63
2019-05-12T01:58:38.051Z,5.37
2019-05-12T02:01:08.211Z,5.07
2019-05-12T02:03:38.247Z,5.13
2019-05-12T02:06:08.481Z,5.87
2019-05-12T02:08:47.750Z,4.90
2019-05-12T02:11:32.600Z,5.60
2019-05-12T02:14:05.955Z,6.03
2019-05-12T02:16:35.795Z,5.63
2019-05-12T02:19:05.542Z,5.33
2019-05-12T02:21:35.303Z,5.40
2019-05-12T02:24:07.572Z,5.90
2019-05-12T02:26:38.332Z,5.17
2019-05-12T02:29:12.015Z,6.80
2019-05-12T02:31:41.805Z,5.80
2019-05-12T02:34:15.297Z,5.67
2019-05-12T02:36:44.777Z,5.53
2019-05-12T02:39:15.202Z,5.57
2019-05-12T02:41:45.235Z,6.20
2019-05-12T02:44:15.362Z,5.70
2019-05-12T02:46:45.281Z,5.83
2019-05-12T02:49:15.897Z,6.13
2019-05-12T02:51:45.831Z,6.73
2019-05-12T02:54:16.583Z,6.00
2019-05-12T02:56:48.546Z,6.50
2019-05-12T02:59:20.958Z,6.20
2019-05-12T03:01:55.121Z,6.17
2019-05-12T03:04:30.207Z,6.27
2019-05-12T03:07:06.606Z,6.37
2019-05-12T03:09:35.491Z,6.93
2019-05-12T03:12:06.107Z,6.97
2019-05-12T03:14:40.542Z,6.53
2019-05-12T03:17:07.627Z,6.77
2019-05-12T03:19:37.478Z,7.53
2019-05-12T03:22:14.367Z,6.83
2019-05-12T03:24:45.079Z,7.47
2019-05-12T03:27:17.826Z,6.93
2019-05-12T03:29:47.166Z,6.83
2019-05-12T03:32:18.021Z,6.53
2019-05-12T03:34:48.043Z,8.00
2019-05-12T03:37:18.574Z,7.07
2019-05-12T03:39:58.934Z,8.13
2019-05-12T03:42:28.736Z,7.07
2019-05-12T03:44:58.491Z,8.30
2019-05-12T03:47:28.211Z,7.07
2019-05-12T03:50:06.481Z,7.63
2019-05-12T03:52:39.608Z,7.37
2019-05-12T03:55:29.688Z,7.70
2019-05-12T03:57:40.918Z,7.37
2019-05-12T04:00:11.190Z,7.53
2019-05-12T04:02:40.904Z,7.30
2019-05-12T04:05:10.752Z,7.17
2019-05-12T04:07:40.539Z,7.30
2019-05-12T04:10:10.388Z,7.23
2019-05-12T04:12:40.154Z,6.97
2019-05-12T04:15:10.121Z,7.20
2019-05-12T04:17:39.825Z,7.07
2019-05-12T04:20:09.608Z,7.17
2019-05-12T04:22:39.924Z,6.70
2019-05-12T04:25:09.870Z,6.93
2019-05-12T04:27:39.768Z,7.13
2019-05-12T04:30:09.596Z,7.50
2019-05-12T04:32:39.472Z,7.97
2019-05-12T04:35:09.421Z,7.47
2019-05-12T04:37:39.195Z,7.57
2019-05-12T04:40:09.325Z,7.13
2019-05-12T04:42:44.888Z,6.97
2019-05-12T04:45:15.738Z,6.10
2019-05-12T04:47:45.123Z,6.87
2019-05-12T04:50:15.808Z,6.83
2019-05-12T04:52:45.733Z,6.40
2019-05-12T04:55:15.494Z,6.50
2019-05-12T04:57:45.389Z,6.63
2019-05-12T05:00:16.218Z,6.00
2019-05-12T05:02:45.975Z,6.30
2019-05-12T05:05:16.790Z,6.27
2019-05-12T05:07:46.588Z,5.30
2019-05-12T05:10:17.056Z,5.83
2019-05-12T05:12:46.911Z,5.73
2019-05-12T05:15:16.766Z,4.87
2019-05-12T05:17:46.534Z,5.47
2019-05-12T05:20:16.376Z,5.40
2019-05-12T05:22:46.076Z,5.03
2019-05-12T05:25:15.926Z,5.33
2019-05-12T05:27:45.662Z,5.23
2019-05-12T05:30:15.566Z,5.80
2019-05-12T05:32:45.395Z,4.87
2019-05-12T05:35:15.246Z,5.27
2019-05-12T05:37:44.933Z,4.93
2019-05-12T05:40:14.891Z,5.47
2019-05-12T05:42:44.581Z,5.00
2019-05-12T05:45:19.519Z,5.03
2019-05-12T05:47:48.960Z,4.87
2019-05-12T05:50:18.337Z,4.63
2019-05-12T05:52:48.751Z,4.80
2019-05-12T05:55:20.377Z,4.73
2019-05-12T05:57:50.024Z,4.70
2019-05-12T06:00:23.221Z,4.50
2019-05-12T06:02:51.670Z,4.30
2019-05-12T06:05:26.310Z,4.70
2019-05-12T06:07:53.584Z,4.23
2019-05-12T06:10:34.726Z,3.90
2019-05-12T06:12:54.957Z,4.90
2019-05-12T06:15:24.706Z,4.30
2019-05-12T06:17:54.422Z,4.23
2019-05-12T06:20:24.107Z,3.90
2019-05-12T06:22:57.538Z,3.90
2019-05-12T06:25:26.452Z,3.30
2019-05-12T06:28:00.025Z,3.80
2019-05-12T06:30:28.669Z,3.80
2019-05-12T06:32:58.488Z,4.00
2019-05-12T06:35:31.028Z,4.17
2019-05-12T06:38:01.816Z,3.20
2019-05-12T06:40:40.309Z,3.83
2019-05-12T06:43:04.311Z,3.67
2019-05-12T06:45:41.929Z,3.70
2019-05-12T06:48:06.900Z,3.60
2019-05-12T06:50:39.144Z,3.63
2019-05-12T06:53:08.136Z,3.60
2019-05-12T06:55:39.436Z,3.57
2019-05-12T06:58:13.972Z,3.63
2019-05-12T07:00:44.423Z,3.70
2019-05-12T07:03:14.457Z,3.67
2019-05-12T07:05:45.266Z,4.00
2019-05-12T07:08:20.107Z,3.63
2019-05-12T07:10:51.882Z,3.20
2019-05-12T07:13:23.188Z,3.50
2019-05-12T07:15:49.678Z,3.30
2019-05-12T07:18:26.509Z,3.27
2019-05-12T07:20:53.752Z,2.87
2019-05-12T07:23:26.098Z,2.87
2019-05-12T07:25:55.343Z,3.13
2019-05-12T07:28:25.198Z,3.33
2019-05-12T07:30:55.128Z,2.60
2019-05-12T07:33:35.208Z,3.27
2019-05-12T07:36:01.977Z,2.80
2019-05-12T07:38:34.687Z,2.83
2019-05-12T07:41:06.766Z,3.03
2019-05-12T07:43:36.735Z,3.00
2019-05-12T07:46:26.070Z,2.67
2019-05-12T07:48:55.248Z,2.90
2019-05-12T07:51:25.035Z,2.70
2019-05-12T07:53:58.934Z,2.83
2019-05-12T07:56:32.577Z,2.77
2019-05-12T07:58:58.945Z,2.73
2019-05-12T08:01:28.749Z,2.10
2019-05-12T08:04:01.286Z,2.40
2019-05-12T08:06:40.321Z,2.27
2019-05-12T08:09:04.042Z,2.80
2019-05-12T08:11:39.802Z,1.77
2019-05-12T08:14:13.780Z,2.20
2019-05-12T08:16:40.978Z,1.80
2019-05-12T08:19:17.230Z,1.90
2019-05-12T08:21:46.548Z,1.70
2019-05-12T08:24:14.305Z,2.00
2019-05-12T08:26:49.610Z,1.80
2019-05-12T08:29:21.191Z,1.63
2019-05-12T08:31:47.158Z,1.50
2019-05-12T08:34:18.130Z,1.33
2019-05-12T08:36:53.106Z,1.73
2019-05-12T08:39:23.613Z,1.40
2019-05-12T08:41:53.643Z,1.60
2019-05-12T08:44:33.198Z,1.60
2019-05-12T08:46:56.615Z,1.80
2019-05-12T08:49:34.129Z,1.73
2019-05-12T08:52:00.376Z,1.63
2019-05-12T08:54:30.355Z,1.30
2019-05-12T08:57:01.276Z,1.30
2019-05-12T08:59:31.669Z,1.73
2019-05-12T09:02:07.398Z,1.37
2019-05-12T09:04:34.836Z,1.40
2019-05-12T09:07:04.902Z,1.30
2019-05-12T09:09:34.890Z,1.70
2019-05-12T09:12:04.744Z,1.80
2019-05-12T09:14:41.361Z,1.87
2019-05-12T09:17:09.689Z,1.73
2019-05-12T09:19:39.500Z,2.20
2019-05-12T09:22:16.295Z,1.50
2019-05-12T09:24:40.743Z,1.63
2019-05-12T09:27:13.609Z,1.43
2019-05-12T09:29:44.704Z,1.33
2019-05-12T09:32:18.851Z,1.30
2019-05-12T09:34:53.157Z,1.40
2019-05-12T09:37:30.923Z,1.53
2019-05-12T09:40:04.571Z,1.20
2019-05-12T09:42:39.239Z,1.33
2019-05-12T09:45:13.843Z,1.70
2019-05-12T09:47:46.326Z,1.33
2019-05-12T09:50:20.467Z,1.27
2019-05-12T09:53:00.650Z,1.20
2019-05-12T09:55:29.273Z,1.20
2019-05-12T09:58:04.248Z,0.90
2019-05-12T10:00:40.583Z,1.33
2019-05-12T10:03:43.669Z,1.13
2019-05-12T10:05:55.685Z,1.00
2019-05-12T10:08:45.417Z,1.30
2019-05-12T10:11:10.306Z,1.20
2019-05-12T10:13:54.229Z,1.43
2019-05-12T10:16:19.057Z,1.30
2019-05-12T10:18:51.579Z,1.43
2019-05-12T10:21:23.820Z,1.37
2019-05-12T10:24:00.320Z,1.43
2019-05-12T10:26:26.960Z,1.50
2019-05-12T10:28:58.265Z,1.23
2019-05-12T10:31:29.644Z,1.40
2019-05-12T10:34:18.871Z,1.13
2019-05-12T10:36:53.456Z,1.40
2019-05-12T10:39:24.488Z,1.50
2019-05-12T10:41:54.883Z,1.37
2019-05-12T10:44:30.076Z,1.10
2019-05-12T10:46:58.092Z,1.33
2019-05-12T10:49:27.877Z,1.20
2019-05-12T10:51:57.713Z,1.20
2019-05-12T10:54:27.580Z,1.27
2019-05-12T10:56:58.075Z,1.40
2019-05-12T10:59:45.193Z,1.17
2019-05-12T11:02:10.952Z,1.00
2019-05-12T11:04:41.423Z,1.03
2019-05-12T11:07:13.550Z,1.10
2019-05-12T11:09:43.946Z,1.13
2019-05-12T11:12:18.937Z,1.10
2019-05-12T11:14:45.485Z,1.30
2019-05-12T11:17:15.580Z,1.40
2019-05-12T11:19:51.324Z,1.67
2019-05-12T11:22:17.125Z,1.13
2019-05-12T11:24:46.846Z,1.47
2019-05-12T11:27:16.632Z,1.63
2019-05-12T11:29:49.463Z,1.30
2019-05-12T11:32:17.968Z,1.40
2019-05-12T11:34:47.980Z,1.40
2019-05-12T11:37:17.810Z,1.23
2019-05-12T11:39:47.929Z,1.37
2019-05-12T11:42:17.892Z,0.90
2019-05-12T11:44:47.947Z,1.00
2019-05-12T11:47:24.279Z,0.93
2019-05-12T11:49:49.611Z,1.10
2019-05-12T11:52:19.605Z,1.30
2019-05-12T11:54:51.725Z,0.93
2019-05-12T11:57:26.243Z,1.10
2019-05-12T12:00:00.983Z,1.10
2019-05-12T12:02:30.234Z,1.10
2019-05-12T12:04:57.676Z,1.13
2019-05-12T12:07:27.381Z,1.27
2019-05-12T12:09:59.597Z,1.30
2019-05-12T12:12:29.477Z,1.00
2019-05-12T12:14:59.887Z,1.20
2019-05-12T12:17:35.140Z,1.00
2019-05-12T12:20:03.872Z,1.00
2019-05-12T12:22:35.333Z,1.10
2019-05-12T12:25:10.880Z,1.13
2019-05-12T12:27:36.986Z,1.30
2019-05-12T12:30:23.474Z,1.20
2019-05-12T12:32:57.108Z,0.80
2019-05-12T12:35:24.431Z,1.00
2019-05-12T12:37:55.116Z,1.07
2019-05-12T12:40:27.139Z,1.00
2019-05-12T12:42:56.917Z,1.00
2019-05-12T12:45:36.666Z,1.13
2019-05-12T12:48:05.855Z,0.90
2019-05-12T12:50:35.663Z,1.17
2019-05-12T12:53:05.493Z,1.10
2019-05-12T12:55:38.104Z,1.23
2019-05-12T12:58:07.150Z,1.20
2019-05-12T13:00:46.600Z,1.17
2019-05-12T13:03:08.333Z,1.20
2019-05-12T13:05:38.299Z,1.20
2019-05-12T13:08:08.060Z,0.90
2019-05-12T13:10:40.527Z,1.10
2019-05-12T13:13:14.209Z,1.10
2019-05-12T13:15:45.447Z,1.20
2019-05-12T13:18:23.507Z,1.13
2019-05-12T13:20:46.920Z,1.00
2019-05-12T13:23:16.750Z,1.07
2019-05-12T13:25:50.551Z,1.20
2019-05-12T13:28:19.218Z,1.40
2019-05-12T13:30:49.774Z,1.00
2019-05-12T13:33:19.608Z,1.30
2019-05-12T13:35:50.232Z,1.50
2019-05-12T13:38:23.837Z,1.30
2019-05-12T13:40:54.272Z,1.20
2019-05-12T13:43:24.204Z,1.33
2019-05-12T13:45:53.902Z,1.30
2019-05-12T13:48:24.091Z,1.33
2019-05-12T13:53:40.464Z,1.23
2019-05-12T13:56:09.840Z,1.30
2019-05-12T13:58:43.027Z,1.20
2019-05-12T14:01:19.002Z,1.03
2019-05-12T14:03:48.610Z,1.03
2019-05-12T14:06:14.063Z,1.10
2019-05-12T14:08:44.566Z,1.20
2019-05-12T14:11:14.722Z,1.10
2019-05-12T14:13:44.447Z,1.60
2019-05-12T14:16:14.264Z,1.60
2019-05-12T14:18:44.287Z,1.90
2019-05-12T14:21:14.166Z,1.13
2019-05-12T14:23:43.908Z,1.57
2019-05-12T14:26:13.853Z,1.87
2019-05-12T14:28:45.640Z,1.30
2019-05-12T14:31:26.463Z,1.63
2019-05-12T14:33:46.464Z,1.47
2019-05-12T14:36:22.316Z,1.50
2019-05-12T14:38:47.718Z,1.63
2019-05-12T14:41:17.525Z,1.60
2019-05-12T14:43:48.023Z,1.57
2019-05-12T14:46:17.921Z,1.53
2019-05-12T14:48:50.456Z,1.60
2019-05-12T14:51:19.104Z,1.37
2019-05-12T14:53:48.805Z,1.60
2019-05-12T14:56:18.594Z,1.40
2019-05-12T14:58:50.302Z,1.60
2019-05-12T15:01:19.815Z,1.50
2019-05-12T15:03:49.569Z,1.30
2019-05-12T15:06:24.404Z,1.50
2019-05-12T15:08:50.790Z,1.10
2019-05-12T15:11:20.572Z,1.50
2019-05-12T15:13:50.360Z,1.40
2019-05-12T15:16:20.081Z,1.20
2019-05-12T15:18:50.250Z,1.03
2019-05-12T15:21:21.257Z,1.23
2019-05-12T15:23:53.310Z,1.33
2019-05-12T15:26:24.174Z,1.70
2019-05-12T15:28:54.537Z,1.27
2019-05-12T15:31:26.974Z,1.10
2019-05-12T15:33:56.695Z,1.50
2019-05-12T15:36:26.468Z,1.10
2019-05-12T15:38:58.807Z,1.33
2019-05-12T15:41:27.656Z,1.10
2019-05-12T15:43:57.488Z,1.30
2019-05-12T15:46:34.674Z,1.23
2019-05-12T15:48:59.684Z,1.20
2019-05-12T15:51:29.434Z,1.20
2019-05-12T15:54:06.254Z,1.10
2019-05-12T15:56:30.629Z,1.37
2019-05-12T15:59:01.373Z,1.23
2019-05-12T16:01:33.475Z,1.30
2019-05-12T16:04:03.819Z,1.30
2019-05-12T16:06:33.539Z,1.50
2019-05-12T16:09:04.711Z,0.97
2019-05-12T16:11:34.848Z,1.10
2019-05-12T16:14:04.724Z,1.10
2019-05-12T16:16:42.653Z,0.97
2019-05-12T16:19:05.953Z,1.10
2019-05-12T16:21:35.708Z,1.40
2019-05-12T16:24:10.933Z,1.40
2019-05-12T16:26:37.072Z,1.53
2019-05-12T16:29:07.398Z,1.13
2019-05-12T16:31:39.405Z,1.20
2019-05-12T16:34:08.870Z,1.40
2019-05-12T16:36:41.154Z,1.57
2019-05-12T16:39:10.098Z,1.07
2019-05-12T16:41:39.971Z,1.20
2019-05-12T16:44:21.311Z,1.20
2019-05-12T16:46:41.268Z,1.30
2019-05-12T16:49:11.035Z,1.10
2019-05-12T16:51:40.833Z,1.30
2019-05-12T16:54:10.592Z,1.33
2019-05-12T16:56:40.381Z,1.27
2019-05-12T16:59:17.172Z,1.13
2019-05-12T17:01:43.758Z,1.40
2019-05-12T17:04:13.505Z,1.00
2019-05-12T17:06:46.839Z,1.30
2019-05-12T17:09:19.532Z,1.10
2019-05-12T17:11:52.838Z,0.97
2019-05-12T17:14:23.513Z,1.00
2019-05-12T17:16:54.356Z,1.00
2019-05-12T17:19:24.431Z,0.90
2019-05-12T17:21:55.522Z,1.27
2019-05-12T17:24:25.633Z,0.90
2019-05-12T17:26:55.359Z,1.10
2019-05-12T17:29:25.064Z,1.00
2019-05-12T17:31:54.863Z,1.30
2019-05-12T17:34:25.954Z,1.10
2019-05-12T17:37:00.045Z,1.20
2019-05-12T17:39:29.256Z,1.10
2019-05-12T17:41:58.935Z,1.10
2019-05-12T17:44:31.290Z,0.93
2019-05-12T17:47:00.257Z,1.10
2019-05-12T17:49:30.954Z,1.00
2019-05-12T17:52:04.522Z,1.10
2019-05-12T17:54:34.133Z,1.10
2019-05-12T17:57:04.221Z,1.07
2019-05-12T17:59:34.026Z,1.13
2019-05-12T18:02:05.572Z,1.00
2019-05-12T18:04:37.253Z,1.23
2019-05-12T18:07:12.830Z,1.00
2019-05-12T18:09:38.439Z,0.90
2019-05-12T18:12:08.483Z,1.20
2019-05-12T18:14:49.988Z,1.10
2019-05-12T18:17:09.834Z,1.13
2019-05-12T18:19:39.755Z,1.00
2019-05-12T18:24:50.576Z,1.43
2019-05-12T18:27:17.277Z,1.10
2019-05-12T18:29:47.005Z,1.23
2019-05-12T18:32:16.717Z,1.10
2019-05-12T18:34:46.451Z,0.90
2019-05-12T18:37:16.753Z,1.30
2019-05-12T18:39:46.809Z,1.10
2019-05-12T18:42:16.490Z,1.10
2019-05-12T18:44:46.684Z,1.20
2019-05-12T18:47:22.306Z,1.00
2019-05-12T18:49:50.112Z,1.20
2019-05-12T18:52:20.054Z,0.90
2019-05-12T18:54:52.678Z,1.50
2019-05-12T18:57:23.867Z,1.00
2019-05-12T18:59:55.166Z,0.93
2019-05-12T19:02:28.326Z,1.03
2019-05-12T19:04:56.047Z,1.00
2019-05-12T19:07:39.291Z,1.10
2019-05-12T19:09:57.910Z,1.30
2019-05-12T19:12:32.604Z,1.40
2019-05-12T19:15:00.227Z,1.07
2019-05-12T19:17:30.102Z,1.20
2019-05-12T19:20:01.531Z,1.00
2019-05-12T19:22:33.659Z,1.10
2019-05-12T19:25:04.648Z,1.40
2019-05-12T19:27:36.007Z,1.10
2019-05-12T19:30:06.381Z,1.20
2019-05-12T19:32:36.681Z,1.27
2019-05-12T19:35:14.514Z,1.13
2019-05-12T19:37:45.338Z,1.07
2019-05-12T19:40:17.604Z,1.17
2019-05-12T19:42:47.845Z,1.33
2019-05-12T19:45:26.806Z,1.07
2019-05-12T19:47:58.742Z,1.20
2019-05-12T19:50:28.904Z,1.03
2019-05-12T19:52:58.688Z,1.10
2019-05-12T19:55:28.919Z,1.10
2019-05-12T19:58:05.454Z,1.17
2019-05-12T20:00:32.921Z,1.33
2019-05-12T20:03:04.462Z,1.07
2019-05-12T20:05:34.922Z,1.30
2019-05-12T20:08:05.525Z,1.40
2019-05-12T20:10:47.139Z,1.30
2019-05-12T20:13:08.357Z,1.40
2019-05-12T20:15:41.003Z,1.30
2019-05-12T20:18:09.930Z,1.33
2019-05-12T20:20:43.926Z,1.43
2019-05-12T20:23:20.890Z,1.47
2019-05-12T20:25:53.433Z,1.30
2019-05-12T20:28:50.445Z,1.30
2019-05-12T20:31:16.600Z,1.47
2019-05-12T20:33:46.583Z,1.60
2019-05-12T20:36:20.614Z,1.30
2019-05-12T20:38:48.694Z,1.40
2019-05-12T20:41:23.630Z,1.70
2019-05-12T20:43:50.720Z,1.50
2019-05-12T20:46:25.619Z,1.80
2019-05-12T20:48:53.835Z,1.97
2019-05-12T20:51:24.372Z,1.73
2019-05-12T20:53:54.279Z,1.63
2019-05-12T20:56:24.971Z,1.77
2019-05-12T20:58:54.906Z,2.17
2019-05-12T21:01:28.243Z,1.90
2019-05-12T21:03:56.175Z,1.60
2019-05-12T21:06:25.964Z,1.73
2019-05-12T21:08:56.624Z,2.03
2019-05-12T21:11:26.616Z,1.90
2019-05-12T21:14:01.063Z,1.70
2019-05-12T21:16:34.622Z,1.80
2019-05-12T21:19:07.613Z,1.93
2019-05-12T21:21:34.318Z,2.53
2019-05-12T21:24:04.872Z,1.87
2019-05-12T21:26:37.753Z,1.87
2019-05-12T21:29:05.288Z,2.27
2019-05-12T21:31:35.018Z,2.37
2019-05-12T21:34:06.818Z,2.03
2019-05-12T21:36:36.359Z,1.93
2019-05-12T21:39:10.310Z,2.43
2019-05-12T21:41:40.620Z,2.40
2019-05-12T21:44:11.241Z,2.80
2019-05-12T21:46:46.931Z,2.30
2019-05-12T21:49:15.480Z,2.80
2019-05-12T21:51:58.945Z,2.37
2019-05-12T21:54:35.077Z,2.30
2019-05-12T21:57:01.005Z,2.70
2019-05-12T21:59:35.354Z,2.23
2019-05-12T22:02:14.632Z,2.70
2019-05-12T22:04:45.753Z,2.30
2019-05-12T22:07:15.225Z,2.70
2019-05-12T22:09:46.949Z,3.43
2019-05-12T22:12:16.405Z,2.10
2019-05-12T22:14:46.326Z,2.30
2019-05-12T22:17:16.135Z,2.80
2019-05-12T22:19:46.056Z,2.13
2019-05-12T22:22:19.646Z,2.53
2019-05-12T22:24:47.208Z,3.10
2019-05-12T22:27:25.867Z,2.20
2019-05-12T22:29:48.391Z,3.17
2019-05-12T22:32:19.122Z,2.67
2019-05-12T22:34:49.522Z,2.93
2019-05-12T22:37:19.298Z,2.57
2019-05-12T22:39:49.668Z,2.30
2019-05-12T22:42:21.704Z,2.17
2019-05-12T22:44:52.951Z,2.77
2019-05-12T22:47:24.035Z,2.73
2019-05-12T22:49:56.922Z,2.87
2019-05-12T22:52:25.310Z,2.53
2019-05-12T22:54:55.151Z,2.53
2019-05-12T22:57:29.218Z,2.77
2019-05-12T22:59:56.325Z,2.90
2019-05-12T23:02:29.729Z,2.70
2019-05-12T23:04:57.581Z,2.80
2019-05-12T23:07:29.639Z,2.70
2019-05-12T23:10:00.572Z,3.50
2019-05-12T23:12:30.188Z,2.80
2019-05-12T23:15:02.895Z,2.97
2019-05-12T23:17:33.741Z,2.77
2019-05-12T23:20:04.763Z,3.00
2019-05-12T23:22:35.457Z,2.80
2019-05-12T23:25:11.391Z,3.03
2019-05-12T23:27:40.538Z,2.70
2019-05-12T23:30:12.587Z,2.63
2019-05-12T23:32:42.908Z,2.37
2019-05-12T23:35:14.436Z,2.60
2019-05-12T23:37:46.576Z,2.80
2019-05-12T23:40:16.806Z,2.23
2019-05-12T23:42:46.663Z,2.03
2019-05-12T23:45:16.520Z,2.60
2019-05-12T23:47:46.328Z,2.60
2019-05-12T23:50:16.152Z,3.77
2019-05-12T23:52:45.859Z,2.80
2019-05-12T23:55:15.662Z,2.30
2019-05-12T23:57:45.437Z,2.37
